Terminal Aerodrome Forecast
Issued by NWS Wilmington, OH

Current Version | Previous Version | Graphics & Text | Print | Product List | Glossary On
Versions: 1 2 3 4 5 6 7 8 9 10 11 12 13 14 15 16 17 18 19 20 21 22 23 24 25 26 27 28 29 30
000
FTUS41 KILN 222300
TAFCVG
TAF
KCVG 222339Z 2300/2406 30003KT P6SM SCT050
     FM230600 00000KT 4SM BR FEW025 SCT060
      TEMPO 2308/2312 1SM BR
     FM231500 30004KT P6SM SCT025
     FM231800 31006KT P6SM BKN040
     FM232300 04005KT P6SM VCSH BKN040=

USA.gov is the U.S. government's official web portal to all federal, state and local government web resources and services.